Time;durP1;ratioP1;P1;durP2;ratioP2;P2;SDS_P1;SDS_P2;PMS_P1;PMS_P2;Temp;Humidity;BMP_temperature;BMP_pressure;BME280_temperature;BME280_humidity;BME280_pressure;Samples;Min_cycle;Max_cycle;Signal;HPM_P1;HPM_P2
2024/01/31 00:01:09;;;;;;;4.43;1.60;;;5.40;99.90;;;;;;5032042;28;20132;-30
2024/01/31 00:03:35;;;;;;;6.53;2.28;;;5.40;99.90;;;;;;5089167;22;20064;-30
2024/01/31 00:06:02;;;;;;;8.50;3.15;;;5.40;99.90;;;;;;5071792;28;20094;-30
2024/01/31 00:08:28;;;;;;;5.18;2.17;;;5.40;99.90;;;;;;5099115;28;20044;-30
2024/01/31 00:10:54;;;;;;;9.43;4.88;;;5.40;99.90;;;;;;5092343;28;20115;-30
2024/01/31 00:13:19;;;;;;;9.77;2.75;;;5.40;99.90;;;;;;5077818;28;20032;-30
2024/01/31 00:15:45;;;;;;;5.35;2.80;;;5.40;99.90;;;;;;5092036;28;20090;-30
2024/01/31 00:18:11;;;;;;;6.00;2.30;;;5.40;99.90;;;;;;5095451;28;20056;-30
2024/01/31 00:20:36;;;;;;;6.20;2.00;;;5.40;99.90;;;;;;5092146;28;20039;-30
2024/01/31 00:23:02;;;;;;;5.63;1.67;;;5.40;99.90;;;;;;5070386;28;20040;-30
2024/01/31 00:25:28;;;;;;;5.13;1.83;;;5.40;99.90;;;;;;5091683;28;20088;-31
2024/01/31 00:27:54;;;;;;;5.93;1.75;;;5.30;99.90;;;;;;5090827;28;20040;-31
2024/01/31 00:30:19;;;;;;;6.07;1.88;;;5.30;99.90;;;;;;5091208;28;20036;-31
2024/01/31 00:32:45;;;;;;;6.72;1.95;;;5.40;99.90;;;;;;5090232;28;20032;-31
2024/01/31 00:35:11;;;;;;;3.63;1.70;;;5.40;99.90;;;;;;5091344;28;20119;-31
2024/01/31 00:37:36;;;;;;;5.93;1.85;;;5.40;99.90;;;;;;5092014;28;20043;-31
2024/01/31 00:40:05;;;;;;;6.80;1.90;;;5.30;99.90;;;;;;5092357;28;20567;-32
2024/01/31 00:42:31;;;;;;;14.02;2.70;;;5.40;99.90;;;;;;5091787;28;20541;-30
2024/01/31 00:44:57;;;;;;;4.13;1.92;;;5.40;99.90;;;;;;5072599;28;20047;-30
2024/01/31 00:47:23;;;;;;;7.20;1.77;;;5.40;99.90;;;;;;5091001;28;20469;-30
2024/01/31 00:49:49;;;;;;;6.18;2.38;;;5.40;99.90;;;;;;5090581;28;20036;-30
2024/01/31 00:52:16;;;;;;;6.32;1.70;;;5.40;99.90;;;;;;5091075;28;20068;-30
2024/01/31 00:54:42;;;;;;;9.07;1.73;;;5.40;99.90;;;;;;5090018;28;20040;-30
2024/01/31 00:57:07;;;;;;;6.53;2.00;;;5.40;99.90;;;;;;5072946;28;20044;-30
2024/01/31 00:59:34;;;;;;;4.63;1.55;;;5.40;99.90;;;;;;5085252;28;20040;-30
2024/01/31 01:02:00;;;;;;;6.55;1.58;;;5.40;99.90;;;;;;5092573;28;20079;-30
2024/01/31 01:04:25;;;;;;;7.20;1.70;;;5.40;99.90;;;;;;5094028;28;20048;-30
2024/01/31 01:06:51;;;;;;;8.32;2.00;;;5.40;99.90;;;;;;5094779;28;20128;-30
2024/01/31 01:09:17;;;;;;;5.53;1.65;;;5.40;99.90;;;;;;5094648;28;20508;-30
2024/01/31 01:11:42;;;;;;;2.72;1.45;;;5.40;99.90;;;;;;5094529;28;20040;-30
2024/01/31 01:14:09;;;;;;;7.55;1.80;;;5.40;99.90;;;;;;5094331;28;20054;-30
2024/01/31 01:16:35;;;;;;;6.60;1.60;;;5.40;99.90;;;;;;5095507;28;20036;-31
2024/01/31 01:19:03;;;;;;;5.85;1.60;;;5.40;99.90;;;;;;5095149;28;20111;-30
2024/01/31 01:21:29;;;;;;;4.50;1.60;;;5.40;99.90;;;;;;5074409;28;20044;-30
2024/01/31 01:23:55;;;;;;;5.20;1.40;;;5.40;99.90;;;;;;5087959;28;20044;-29
2024/01/31 01:26:20;;;;;;;7.60;1.45;;;5.40;99.90;;;;;;5094423;28;20120;-30
2024/01/31 01:28:46;;;;;;;4.35;1.60;;;5.40;99.90;;;;;;5094198;28;20037;-30
2024/01/31 01:31:13;;;;;;;4.60;2.00;;;5.40;99.90;;;;;;5090753;28;20103;-30
2024/01/31 01:33:39;;;;;;;3.13;1.63;;;5.30;99.90;;;;;;5091912;28;20525;-30
2024/01/31 01:36:05;;;;;;;3.58;1.70;;;5.30;99.90;;;;;;5092915;28;20040;-31
2024/01/31 01:38:32;;;;;;;5.68;1.50;;;5.30;99.90;;;;;;5094091;28;20054;-31
2024/01/31 01:40:58;;;;;;;4.03;1.83;;;5.40;99.90;;;;;;5093438;28;20047;-31
2024/01/31 01:43:24;;;;;;;5.75;1.98;;;5.30;99.90;;;;;;5077784;28;20101;-31
2024/01/31 01:46:00;;;;;;;3.70;1.60;;;5.30;99.90;;;;;;5098693;28;20044;-31
2024/01/31 01:48:26;;;;;;;4.35;1.85;;;5.30;99.90;;;;;;5068863;28;20129;-31
2024/01/31 01:50:51;;;;;;;5.65;2.13;;;5.30;99.90;;;;;;5093496;28;20036;-31
2024/01/31 01:53:17;;;;;;;5.13;1.73;;;5.20;99.90;;;;;;5087444;28;20241;-31
2024/01/31 01:55:45;;;;;;;4.43;1.55;;;5.30;99.90;;;;;;5092935;28;20048;-31
2024/01/31 01:58:11;;;;;;;5.80;1.77;;;5.30;99.90;;;;;;5093674;28;20575;-30
2024/01/31 02:00:40;;;;;;;5.30;1.83;;;5.20;99.90;;;;;;5093603;28;20040;-30
2024/01/31 02:03:07;;;;;;;5.32;1.80;;;5.20;99.90;;;;;;5092873;28;20529;-30
2024/01/31 02:05:32;;;;;;;3.40;1.55;;;5.20;99.90;;;;;;5093359;28;20387;-31
2024/01/31 02:07:59;;;;;;;6.45;2.17;;;5.20;99.90;;;;;;5058466;28;20065;-30
2024/01/31 02:10:24;;;;;;;3.70;1.60;;;5.20;99.90;;;;;;5092140;28;20044;-30
2024/01/31 02:12:50;;;;;;;5.18;1.67;;;5.20;99.90;;;;;;5091497;28;20043;-30
2024/01/31 02:15:16;;;;;;;4.28;1.50;;;5.20;99.90;;;;;;5094359;28;20031;-29
2024/01/31 02:17:42;;;;;;;3.28;1.50;;;5.20;99.90;;;;;;5093086;28;20032;-30
2024/01/31 02:20:08;;;;;;;4.78;1.65;;;5.20;99.90;;;;;;5093354;28;20127;-30
2024/01/31 02:22:34;;;;;;;5.20;1.45;;;5.20;99.90;;;;;;5092595;28;20044;-30
2024/01/31 02:25:01;;;;;;;3.40;1.52;;;5.20;99.90;;;;;;5091606;28;20452;-29
2024/01/31 02:27:27;;;;;;;5.75;1.70;;;5.20;99.90;;;;;;5073257;28;20047;-31
2024/01/31 02:29:52;;;;;;;2.13;1.13;;;5.10;99.90;;;;;;5092534;28;20036;-31
2024/01/31 02:32:18;;;;;;;5.22;1.40;;;5.20;99.90;;;;;;5078170;28;20072;-31
2024/01/31 02:34:44;;;;;;;10.50;1.55;;;5.10;99.90;;;;;;5086233;28;20486;-31
2024/01/31 02:37:10;;;;;;;5.53;1.25;;;5.10;99.90;;;;;;5083481;28;20134;-31
2024/01/31 02:39:35;;;;;;;4.00;1.67;;;5.10;99.90;;;;;;5092685;28;20036;-31
2024/01/31 02:42:01;;;;;;;4.85;1.40;;;5.10;99.90;;;;;;5092744;28;20040;-31
2024/01/31 02:44:27;;;;;;;2.70;1.30;;;5.10;99.90;;;;;;5075919;28;20040;-30
2024/01/31 02:46:53;;;;;;;6.40;1.55;;;5.10;99.90;;;;;;5092952;28;20067;-30
2024/01/31 02:49:18;;;;;;;5.70;1.45;;;5.10;99.90;;;;;;5093630;28;20033;-31
2024/01/31 02:51:44;;;;;;;4.70;1.75;;;5.10;99.90;;;;;;5093497;28;20036;-32
2024/01/31 02:54:10;;;;;;;5.18;2.10;;;5.10;99.90;;;;;;5093485;28;20035;-30
2024/01/31 02:56:36;;;;;;;4.85;1.50;;;5.10;99.90;;;;;;5086172;28;20035;-30
2024/01/31 02:59:01;;;;;;;5.07;1.60;;;5.10;99.90;;;;;;5074110;28;20125;-30
2024/01/31 03:01:27;;;;;;;4.13;1.67;;;5.10;99.90;;;;;;5092811;28;20040;-30
2024/01/31 03:03:53;;;;;;;5.90;1.40;;;5.10;99.90;;;;;;5089116;28;20151;-30
2024/01/31 03:06:18;;;;;;;7.80;1.85;;;5.10;99.90;;;;;;5092272;28;20036;-30
2024/01/31 03:08:44;;;;;;;3.30;1.85;;;5.10;99.90;;;;;;5074751;28;20047;-30
2024/01/31 03:11:10;;;;;;;4.50;1.52;;;5.10;99.90;;;;;;5092006;28;20044;-30
2024/01/31 03:13:35;;;;;;;7.63;1.40;;;5.10;99.90;;;;;;5083918;28;20028;-30
2024/01/31 03:16:01;;;;;;;5.75;1.75;;;5.10;99.90;;;;;;5087310;28;20058;-30
2024/01/31 03:18:27;;;;;;;4.10;1.40;;;5.10;99.90;;;;;;5080434;28;20032;-30
2024/01/31 03:20:54;;;;;;;3.63;1.48;;;5.10;99.90;;;;;;5087818;28;20048;-30
2024/01/31 03:23:20;;;;;;;5.97;1.67;;;5.10;99.90;;;;;;5090552;28;20040;-30
2024/01/31 03:25:46;;;;;;;3.85;1.60;;;5.10;99.90;;;;;;5083137;28;20062;-30
2024/01/31 03:28:12;;;;;;;5.93;1.55;;;5.10;99.90;;;;;;5095258;28;20044;-30
2024/01/31 03:30:38;;;;;;;4.55;1.40;;;5.10;99.90;;;;;;5093589;28;20141;-30
2024/01/31 03:33:04;;;;;;;3.10;1.20;;;5.10;99.90;;;;;;5073681;28;20032;-30
2024/01/31 03:35:29;;;;;;;3.45;1.30;;;5.10;99.90;;;;;;5074653;28;20466;-32
2024/01/31 03:37:55;;;;;;;7.38;1.85;;;5.10;99.90;;;;;;5093106;28;20040;-31
2024/01/31 03:40:21;;;;;;;1.98;1.45;;;5.10;99.90;;;;;;5072111;28;20487;-31
2024/01/31 03:42:47;;;;;;;4.07;1.40;;;5.10;99.90;;;;;;5091666;28;20036;-31
2024/01/31 03:45:12;;;;;;;3.22;1.27;;;5.10;99.90;;;;;;5094182;28;20035;-31
2024/01/31 03:47:38;;;;;;;5.70;1.30;;;5.10;99.90;;;;;;5093105;28;20040;-31
2024/01/31 03:50:04;;;;;;;5.15;1.30;;;5.10;99.90;;;;;;5073418;28;20111;-31
2024/01/31 03:52:30;;;;;;;2.75;1.40;;;5.10;99.90;;;;;;5090647;28;20488;-31
2024/01/31 03:54:56;;;;;;;5.28;1.45;;;5.10;99.90;;;;;;5082957;28;20047;-32
2024/01/31 03:57:22;;;;;;;4.50;1.90;;;5.10;99.90;;;;;;5090292;28;20035;-31
2024/01/31 03:59:49;;;;;;;4.47;1.30;;;5.00;99.90;;;;;;5073547;28;20460;-31
2024/01/31 04:02:14;;;;;;;5.03;1.58;;;5.10;99.90;;;;;;5075985;28;20067;-31
2024/01/31 04:04:40;;;;;;;6.30;1.38;;;5.10;99.90;;;;;;5092228;28;20093;-31
2024/01/31 04:07:06;;;;;;;4.13;1.45;;;5.00;99.90;;;;;;5074358;28;20505;-31
2024/01/31 04:09:31;;;;;;;4.05;1.30;;;5.00;99.90;;;;;;5100082;28;20482;-31
2024/01/31 04:11:59;;;;;;;4.32;0.93;;;5.00;99.90;;;;;;5093961;28;20047;-31
2024/01/31 04:14:24;;;;;;;3.15;1.20;;;5.00;99.90;;;;;;5091477;28;20116;-31
2024/01/31 04:16:50;;;;;;;3.72;1.05;;;5.00;99.90;;;;;;5091411;28;20036;-31
2024/01/31 04:19:16;;;;;;;3.53;1.05;;;5.00;99.90;;;;;;5073409;28;20043;-31
2024/01/31 04:21:41;;;;;;;3.50;1.20;;;5.00;99.90;;;;;;5090905;28;20513;-31
2024/01/31 04:24:07;;;;;;;3.78;1.00;;;5.00;99.90;;;;;;5091529;28;20112;-31
2024/01/31 04:26:33;;;;;;;4.57;1.20;;;5.00;99.90;;;;;;5064745;28;20032;-31
2024/01/31 04:28:58;;;;;;;3.78;1.20;;;5.00;99.90;;;;;;5089711;28;20036;-30
2024/01/31 04:31:24;;;;;;;2.60;1.13;;;4.90;99.90;;;;;;5090833;28;20071;-30
2024/01/31 04:33:50;;;;;;;4.07;1.00;;;4.90;99.90;;;;;;5070687;28;20047;-30
2024/01/31 04:36:16;;;;;;;4.20;1.45;;;4.90;99.90;;;;;;5081567;28;20047;-29
2024/01/31 04:38:42;;;;;;;3.55;1.60;;;4.90;99.90;;;;;;5094196;28;20036;-30
2024/01/31 04:41:07;;;;;;;2.60;0.90;;;5.00;99.90;;;;;;5094930;28;20554;-30
2024/01/31 04:43:33;;;;;;;3.22;0.90;;;4.90;99.90;;;;;;5098407;28;20043;-30
2024/01/31 04:46:00;;;;;;;1.15;0.80;;;4.90;99.90;;;;;;5091211;28;20044;-29
2024/01/31 04:48:25;;;;;;;4.45;0.90;;;4.90;99.90;;;;;;5095184;28;20040;-31
2024/01/31 04:50:51;;;;;;;1.75;0.73;;;5.00;99.90;;;;;;5092812;28;20093;-30
2024/01/31 04:53:17;;;;;;;3.53;0.90;;;4.90;99.90;;;;;;5055972;28;20102;-30
2024/01/31 04:55:44;;;;;;;4.72;1.05;;;5.00;99.90;;;;;;5094113;22;20152;-30
2024/01/31 04:58:10;;;;;;;3.28;0.93;;;4.90;99.90;;;;;;5050254;28;20116;-30
2024/01/31 05:00:36;;;;;;;3.30;0.90;;;4.90;99.90;;;;;;5053177;28;20036;-31
2024/01/31 05:03:02;;;;;;;2.15;0.90;;;5.00;99.90;;;;;;5055185;28;20495;-32
2024/01/31 05:05:27;;;;;;;12.65;6.20;;;4.90;99.90;;;;;;5055657;28;20409;-32
2024/01/31 05:07:53;;;;;;;5.57;2.88;;;5.00;99.90;;;;;;5053945;28;20493;-29
2024/01/31 05:10:20;;;;;;;24.45;12.50;;;4.90;99.90;;;;;;5054470;28;20048;-31
2024/01/31 05:12:45;;;;;;;19.55;10.48;;;4.90;99.90;;;;;;5037399;28;20047;-32
2024/01/31 05:15:11;;;;;;;47.25;18.83;;;4.90;99.90;;;;;;5055448;28;20037;-32
2024/01/31 05:17:38;;;;;;;23.80;9.73;;;4.90;99.90;;;;;;5037260;28;20125;-32
2024/01/31 05:20:04;;;;;;;11.57;3.50;;;4.90;99.90;;;;;;5055437;28;20511;-32
2024/01/31 05:22:30;;;;;;;5.80;3.72;;;4.90;99.90;;;;;;5053628;28;20037;-32
2024/01/31 05:24:56;;;;;;;5.25;3.42;;;4.90;99.90;;;;;;5054891;28;20047;-33
2024/01/31 05:27:22;;;;;;;5.55;2.47;;;4.90;99.90;;;;;;5055197;28;20509;-32
2024/01/31 05:29:48;;;;;;;3.88;1.70;;;4.90;99.90;;;;;;5055093;28;20120;-32
2024/01/31 05:32:14;;;;;;;6.38;2.08;;;4.90;99.90;;;;;;5047317;28;20045;-32
2024/01/31 05:34:44;;;;;;;4.60;1.50;;;4.90;99.90;;;;;;5005251;28;20111;-32
2024/01/31 05:37:09;;;;;;;3.90;1.67;;;4.90;99.90;;;;;;5034962;28;20044;-32
2024/01/31 05:39:35;;;;;;;3.97;1.80;;;4.90;99.90;;;;;;5035181;28;20045;-32
2024/01/31 05:42:02;;;;;;;4.85;1.95;;;4.90;99.90;;;;;;5026008;28;20477;-32
2024/01/31 05:44:28;;;;;;;7.75;4.90;;;4.90;99.90;;;;;;5054989;28;20052;-32
2024/01/31 05:46:53;;;;;;;9.80;6.95;;;4.90;99.90;;;;;;5054535;28;20415;-32
2024/01/31 05:49:19;;;;;;;10.13;6.20;;;4.90;99.90;;;;;;5052535;28;20102;-32
2024/01/31 05:51:45;;;;;;;7.10;4.00;;;4.90;99.90;;;;;;5054490;28;20453;-32
2024/01/31 05:54:10;;;;;;;16.50;11.75;;;4.90;99.90;;;;;;5054718;28;20103;-32
2024/01/31 05:56:38;;;;;;;9.60;6.95;;;4.90;99.90;;;;;;5056779;28;20124;-32
2024/01/31 05:59:04;;;;;;;9.95;5.32;;;4.90;99.90;;;;;;5066170;28;20048;-32
2024/01/31 06:01:29;;;;;;;6.53;2.30;;;4.90;99.90;;;;;;5073595;28;20502;-32
2024/01/31 06:03:55;;;;;;;8.98;3.55;;;4.90;99.90;;;;;;5054571;28;20033;-32
2024/01/31 06:06:21;;;;;;;8.85;4.50;;;4.90;99.90;;;;;;5054027;28;20041;-32
2024/01/31 06:08:47;;;;;;;9.65;6.70;;;4.90;99.90;;;;;;5053260;28;20116;-32
2024/01/31 06:11:12;;;;;;;6.65;2.92;;;4.90;99.90;;;;;;5053351;28;20040;-32
2024/01/31 06:13:39;;;;;;;7.57;3.00;;;4.90;99.90;;;;;;5054115;28;20045;-32
2024/01/31 06:16:05;;;;;;;8.07;3.53;;;4.90;99.90;;;;;;5054279;28;20048;-32
2024/01/31 06:18:34;;;;;;;8.25;3.85;;;4.90;99.90;;;;;;5052923;28;20049;-32
2024/01/31 06:21:00;;;;;;;7.88;4.78;;;4.90;99.90;;;;;;5042706;28;20511;-32
2024/01/31 06:23:26;;;;;;;7.97;5.22;;;4.90;99.90;;;;;;5047955;28;20056;-32
2024/01/31 06:25:52;;;;;;;5.57;3.00;;;4.90;99.90;;;;;;5074256;28;20032;-32
2024/01/31 06:28:18;;;;;;;4.15;2.28;;;4.90;99.90;;;;;;5058225;28;20047;-32
2024/01/31 06:30:44;;;;;;;6.53;3.75;;;4.90;99.90;;;;;;5053782;28;20376;-32
2024/01/31 06:33:14;;;;;;;13.32;8.98;;;4.90;99.90;;;;;;5035963;28;20048;-32
2024/01/31 06:35:47;;;;;;;7.18;3.83;;;4.90;99.90;;;;;;5053896;28;20120;-32
2024/01/31 06:38:13;;;;;;;14.55;8.95;;;4.90;99.90;;;;;;5053880;28;20071;-32
2024/01/31 06:40:39;;;;;;;12.05;8.57;;;4.90;99.90;;;;;;5066200;28;20248;-32
2024/01/31 06:43:05;;;;;;;14.70;8.82;;;4.90;99.90;;;;;;5053032;28;20051;-32
2024/01/31 06:45:30;;;;;;;7.15;4.25;;;4.90;99.90;;;;;;5052512;28;20045;-33
2024/01/31 06:47:56;;;;;;;6.53;4.20;;;4.90;99.90;;;;;;5052228;28;20033;-33
2024/01/31 06:50:22;;;;;;;7.82;4.80;;;4.90;99.90;;;;;;5049580;28;20602;-31
2024/01/31 06:52:47;;;;;;;13.70;8.10;;;5.00;99.90;;;;;;5047154;28;20041;-32
2024/01/31 06:55:14;;;;;;;19.67;12.90;;;5.00;99.90;;;;;;5052748;28;20037;-31
2024/01/31 06:57:40;;;;;;;7.93;5.80;;;5.00;99.90;;;;;;5053293;28;20422;-32
2024/01/31 07:00:08;;;;;;;11.18;6.57;;;5.00;99.90;;;;;;5030770;28;20081;-32
2024/01/31 07:02:34;;;;;;;8.27;5.05;;;4.90;99.90;;;;;;5051706;28;20508;-31
2024/01/31 07:05:00;;;;;;;9.40;4.75;;;5.00;99.90;;;;;;5052088;28;20044;-31
2024/01/31 07:07:25;;;;;;;8.07;4.80;;;5.00;99.90;;;;;;5016346;28;20388;-31
2024/01/31 07:09:51;;;;;;;10.43;4.13;;;5.00;99.90;;;;;;5030733;28;20056;-31
2024/01/31 07:12:17;;;;;;;4.60;2.95;;;5.00;99.90;;;;;;5036855;28;20076;-31
2024/01/31 07:14:43;;;;;;;5.88;2.60;;;5.00;99.90;;;;;;5012744;28;20068;-31
2024/01/31 07:17:09;;;;;;;9.20;6.40;;;5.00;99.90;;;;;;5033794;28;20052;-31
2024/01/31 07:19:35;;;;;;;7.22;4.10;;;5.00;99.90;;;;;;5047573;28;20043;-32
2024/01/31 07:22:01;;;;;;;6.38;3.90;;;5.00;99.90;;;;;;5047851;28;20037;-31
2024/01/31 07:24:31;;;;;;;4.47;3.15;;;5.00;99.90;;;;;;5046850;28;20068;-32
2024/01/31 07:26:57;;;;;;;5.43;3.03;;;5.00;99.90;;;;;;5048035;28;20119;-33
2024/01/31 07:29:22;;;;;;;6.78;3.33;;;5.00;99.90;;;;;;5048956;28;20120;-33
2024/01/31 07:31:48;;;;;;;6.93;3.80;;;5.00;99.90;;;;;;5051559;28;20032;-32
2024/01/31 07:34:14;;;;;;;6.57;3.55;;;5.00;99.90;;;;;;5054253;28;20037;-33
2024/01/31 07:36:39;;;;;;;5.95;3.08;;;5.00;99.90;;;;;;5033814;28;20056;-33
2024/01/31 07:39:05;;;;;;;7.65;4.50;;;5.00;99.90;;;;;;5029894;28;20044;-31
2024/01/31 07:41:32;;;;;;;8.73;4.82;;;5.00;99.90;;;;;;5050429;28;20095;-32
2024/01/31 07:43:57;;;;;;;6.60;4.32;;;5.00;99.90;;;;;;5032832;28;20083;-32
2024/01/31 07:46:23;;;;;;;8.75;6.70;;;5.00;99.90;;;;;;5050448;28;20065;-32
2024/01/31 07:48:49;;;;;;;10.23;4.90;;;5.00;99.90;;;;;;5048248;28;20501;-32
2024/01/31 07:51:15;;;;;;;9.05;6.43;;;5.00;99.90;;;;;;5051537;28;20033;-31
2024/01/31 07:53:41;;;;;;;8.70;5.80;;;5.00;99.90;;;;;;5047770;28;20034;-32
2024/01/31 07:56:07;;;;;;;11.40;7.60;;;5.00;99.90;;;;;;5023237;28;20476;-31
2024/01/31 07:58:33;;;;;;;9.50;5.80;;;5.00;99.90;;;;;;5049098;28;20109;-32
2024/01/31 08:00:59;;;;;;;10.50;6.65;;;5.00;99.90;;;;;;5046637;28;20084;-31
2024/01/31 08:03:24;;;;;;;12.48;7.00;;;5.00;99.90;;;;;;5049940;28;20041;-31
2024/01/31 08:05:50;;;;;;;13.15;8.15;;;5.00;99.90;;;;;;5047155;28;20045;-32
2024/01/31 08:08:16;;;;;;;11.13;6.65;;;5.00;99.90;;;;;;5050373;28;20432;-31
2024/01/31 08:10:42;;;;;;;10.55;6.82;;;5.10;99.90;;;;;;5050782;28;20420;-32
2024/01/31 08:13:08;;;;;;;8.27;6.88;;;5.10;99.90;;;;;;5052680;28;20059;-33
2024/01/31 08:15:34;;;;;;;10.00;6.70;;;5.10;99.90;;;;;;5052154;28;20507;-31
2024/01/31 08:18:04;;;;;;;11.05;6.65;;;5.10;99.90;;;;;;5056579;28;20399;-32
2024/01/31 08:20:30;;;;;;;7.93;6.20;;;5.10;99.90;;;;;;5055265;28;20106;-32
2024/01/31 08:22:56;;;;;;;9.80;6.18;;;5.10;99.90;;;;;;5054987;28;20048;-32
2024/01/31 08:25:22;;;;;;;7.82;5.93;;;5.10;99.90;;;;;;5054024;28;20406;-31
2024/01/31 08:27:49;;;;;;;8.77;6.50;;;5.10;99.90;;;;;;5053837;28;20369;-32
2024/01/31 08:30:16;;;;;;;17.58;13.25;;;5.10;99.90;;;;;;5054928;28;20408;-32
2024/01/31 08:32:41;;;;;;;14.05;8.38;;;5.20;99.90;;;;;;5054470;28;20087;-32
2024/01/31 08:35:08;;;;;;;11.45;7.05;;;5.20;99.90;;;;;;5054767;28;20391;-31
2024/01/31 08:37:34;;;;;;;14.93;9.68;;;5.20;99.90;;;;;;5054460;28;20388;-31
2024/01/31 08:39:59;;;;;;;7.28;5.38;;;5.20;99.90;;;;;;5049547;28;20051;-32
2024/01/31 08:42:28;;;;;;;11.50;8.50;;;5.20;99.90;;;;;;5053477;28;20053;-32
2024/01/31 08:44:55;;;;;;;10.60;6.50;;;5.20;99.90;;;;;;5050058;28;20045;-31
2024/01/31 08:47:21;;;;;;;9.50;7.43;;;5.20;99.90;;;;;;5055116;28;20458;-31
2024/01/31 08:49:48;;;;;;;8.32;6.43;;;5.30;99.90;;;;;;5054309;28;20037;-33
2024/01/31 08:52:14;;;;;;;8.82;6.22;;;5.30;99.90;;;;;;5042714;28;20348;-32
2024/01/31 08:54:40;;;;;;;10.30;5.22;;;5.30;99.90;;;;;;5050993;28;20179;-31
2024/01/31 08:57:06;;;;;;;8.88;6.25;;;5.40;99.90;;;;;;5021344;28;20046;-32
2024/01/31 08:59:31;;;;;;;9.10;5.95;;;5.40;99.90;;;;;;5033320;28;20045;-33
2024/01/31 09:01:57;;;;;;;9.38;5.75;;;5.40;99.90;;;;;;5027751;28;20041;-32
2024/01/31 09:04:23;;;;;;;6.68;5.28;;;5.40;99.90;;;;;;5025083;28;20128;-32
2024/01/31 09:06:49;;;;;;;5.85;4.15;;;5.50;99.90;;;;;;5034190;28;20033;-32
2024/01/31 09:09:15;;;;;;;7.93;4.35;;;5.50;99.90;;;;;;5025210;28;20045;-32
2024/01/31 09:11:41;;;;;;;10.80;7.05;;;5.60;99.90;;;;;;5029407;28;20413;-31
2024/01/31 09:14:07;;;;;;;9.00;6.40;;;5.60;99.90;;;;;;5032646;28;20045;-32
2024/01/31 09:16:34;;;;;;;7.57;5.22;;;5.60;99.90;;;;;;5030644;28;20510;-32
2024/01/31 09:19:01;;;;;;;10.20;5.47;;;5.70;99.90;;;;;;5014783;28;20392;-32
2024/01/31 09:21:27;;;;;;;7.38;5.28;;;5.70;99.90;;;;;;5027113;28;20099;-31
2024/01/31 09:23:53;;;;;;;6.93;6.00;;;5.80;99.90;;;;;;5030450;28;20472;-32
2024/01/31 09:26:19;;;;;;;8.30;6.10;;;5.80;99.90;;;;;;5030629;28;20067;-32
2024/01/31 09:28:45;;;;;;;11.48;7.45;;;5.80;99.90;;;;;;5014670;28;20428;-31
2024/01/31 09:31:18;;;;;;;9.50;6.25;;;5.80;99.90;;;;;;5028812;28;20033;-31
2024/01/31 09:33:44;;;;;;;9.93;6.38;;;5.80;99.90;;;;;;5012453;28;20064;-32
2024/01/31 09:36:10;;;;;;;6.85;5.25;;;5.80;99.90;;;;;;5027176;28;20469;-31
2024/01/31 09:38:36;;;;;;;7.68;5.50;;;5.80;99.90;;;;;;5026478;28;20040;-31
2024/01/31 09:41:01;;;;;;;9.27;6.25;;;5.90;99.90;;;;;;5036133;28;20439;-31
2024/01/31 09:43:27;;;;;;;6.68;5.40;;;5.90;99.90;;;;;;5035071;28;20082;-32
2024/01/31 09:45:55;;;;;;;7.93;5.88;;;5.90;99.90;;;;;;5033763;28;20121;-32
2024/01/31 09:48:21;;;;;;;8.82;5.10;;;6.00;99.90;;;;;;5040530;28;20422;-31
2024/01/31 09:50:46;;;;;;;5.72;4.82;;;6.00;99.90;;;;;;5021349;28;20038;-31
2024/01/31 09:53:13;;;;;;;13.82;8.30;;;6.00;99.90;;;;;;5010297;28;20045;-31
2024/01/31 09:55:41;;;;;;;8.35;5.53;;;6.10;99.90;;;;;;5030436;28;20049;-31
2024/01/31 09:58:06;;;;;;;7.75;4.82;;;6.10;99.90;;;;;;5048075;28;20056;-30
2024/01/31 10:00:33;;;;;;;7.20;4.78;;;6.10;99.90;;;;;;5051612;28;20040;-30
2024/01/31 10:02:59;;;;;;;10.40;6.22;;;6.10;99.90;;;;;;5025222;28;20606;-30
2024/01/31 10:05:25;;;;;;;6.32;4.70;;;6.20;99.90;;;;;;5051425;28;20037;-30
2024/01/31 10:08:00;;;;;;;13.30;7.53;;;6.10;99.90;;;;;;5061245;28;20045;-30
2024/01/31 10:10:27;;;;;;;6.30;5.10;;;6.20;99.90;;;;;;5049436;28;20136;-30
2024/01/31 10:12:53;;;;;;;11.02;7.57;;;6.20;99.90;;;;;;5051786;28;20037;-30
2024/01/31 10:15:19;;;;;;;6.38;5.35;;;6.30;99.90;;;;;;5050905;28;20499;-31
2024/01/31 10:17:45;;;;;;;8.80;6.20;;;6.30;99.90;;;;;;5055774;28;20048;-31
2024/01/31 10:20:13;;;;;;;7.55;5.28;;;6.40;99.90;;;;;;5039736;28;20041;-30
2024/01/31 10:22:39;;;;;;;7.45;5.70;;;6.40;99.90;;;;;;5053291;28;20498;-31
2024/01/31 10:25:08;;;;;;;8.68;5.38;;;6.40;99.90;;;;;;5052811;28;20124;-31
2024/01/31 10:27:38;;;;;;;8.27;6.43;;;6.40;99.90;;;;;;5038531;28;20045;-31
2024/01/31 10:30:14;;;;;;;9.50;6.60;;;6.40;99.90;;;;;;5052082;28;20045;-30
2024/01/31 10:32:40;;;;;;;6.43;5.65;;;6.40;99.90;;;;;;5046223;28;20476;-31
2024/01/31 10:35:07;;;;;;;6.20;5.18;;;6.40;99.90;;;;;;5050982;28;20371;-31
2024/01/31 10:37:34;;;;;;;6.88;6.03;;;6.50;99.90;;;;;;5046172;28;20037;-30
2024/01/31 10:40:00;;;;;;;6.85;5.38;;;6.50;99.90;;;;;;5059428;28;20150;-30
2024/01/31 10:42:26;;;;;;;7.22;6.18;;;6.50;99.90;;;;;;5040100;28;20057;-30
2024/01/31 10:44:54;;;;;;;9.60;6.40;;;6.50;99.90;;;;;;5033171;28;20151;-30
2024/01/31 10:47:19;;;;;;;9.20;6.22;;;6.50;99.90;;;;;;5051773;28;20045;-30
2024/01/31 10:49:45;;;;;;;8.32;6.55;;;6.60;99.90;;;;;;5053626;28;20051;-30
2024/01/31 10:52:14;;;;;;;9.55;6.43;;;6.60;99.90;;;;;;5038933;28;20073;-30
2024/01/31 10:54:46;;;;;;;8.13;6.15;;;6.60;99.90;;;;;;5056121;28;20068;-30
2024/01/31 10:57:13;;;;;;;8.70;6.50;;;6.50;99.90;;;;;;5060591;28;20041;-31
2024/01/31 10:59:39;;;;;;;7.95;6.18;;;6.60;99.90;;;;;;5036321;28;20497;-30
2024/01/31 11:02:14;;;;;;;8.35;6.53;;;6.60;99.90;;;;;;5058099;28;20442;-31
2024/01/31 11:04:41;;;;;;;9.38;7.18;;;6.60;99.90;;;;;;5052758;28;20045;-30
2024/01/31 11:07:20;;;;;;;8.70;6.97;;;6.60;99.90;;;;;;5049741;28;20103;-31
2024/01/31 11:09:47;;;;;;;9.95;7.10;;;6.60;99.90;;;;;;5039192;28;20116;-30
2024/01/31 11:12:17;;;;;;;9.82;7.45;;;6.60;99.90;;;;;;5053578;28;20452;-31
2024/01/31 11:14:46;;;;;;;10.65;7.47;;;6.60;99.90;;;;;;5054535;28;20451;-30
2024/01/31 11:17:20;;;;;;;8.88;7.60;;;6.60;99.90;;;;;;5034618;28;20037;-30
2024/01/31 11:19:58;;;;;;;10.88;8.50;;;6.60;99.90;;;;;;5058359;28;20499;-30
2024/01/31 11:22:24;;;;;;;10.32;7.80;;;6.60;99.90;;;;;;5055564;28;20386;-30
2024/01/31 11:24:52;;;;;;;8.95;8.05;;;6.60;99.90;;;;;;5060876;28;20438;-30
2024/01/31 11:27:18;;;;;;;8.40;7.18;;;6.60;99.90;;;;;;5055929;28;20037;-30
2024/01/31 11:29:55;;;;;;;9.05;8.13;;;6.60;99.90;;;;;;5053425;28;20561;-30
2024/01/31 11:32:22;;;;;;;10.00;7.75;;;6.70;99.90;;;;;;5056104;28;20044;-30
2024/01/31 11:35:04;;;;;;;8.18;6.82;;;6.70;99.90;;;;;;5058944;28;20422;-30
2024/01/31 11:37:30;;;;;;;10.65;7.32;;;6.70;99.90;;;;;;5056857;28;20112;-30
2024/01/31 11:39:56;;;;;;;8.85;7.45;;;6.70;99.90;;;;;;5059211;28;20120;-30
2024/01/31 11:42:22;;;;;;;8.85;6.57;;;6.80;99.90;;;;;;5048670;28;20037;-31
2024/01/31 11:44:48;;;;;;;7.63;6.93;;;6.90;99.90;;;;;;5053091;28;20044;-30
2024/01/31 11:47:15;;;;;;;6.90;5.78;;;6.90;99.90;;;;;;5056868;28;20037;-30
2024/01/31 11:49:40;;;;;;;7.60;6.40;;;7.00;99.90;;;;;;5050510;28;20052;-30
2024/01/31 11:52:06;;;;;;;7.57;6.22;;;7.10;99.90;;;;;;5057821;28;20037;-30
2024/01/31 11:54:32;;;;;;;6.72;5.80;;;7.20;99.90;;;;;;5048748;28;20416;-31
2024/01/31 11:56:58;;;;;;;7.30;6.53;;;7.20;99.90;;;;;;5042872;28;20420;-30
2024/01/31 11:59:24;;;;;;;7.10;6.28;;;7.30;99.90;;;;;;5041515;28;20049;-30
2024/01/31 12:01:50;;;;;;;8.00;6.55;;;7.30;99.90;;;;;;5044067;28;20064;-30
2024/01/31 12:04:15;;;;;;;7.13;6.40;;;7.40;99.90;;;;;;5053444;28;20590;-30
2024/01/31 12:06:41;;;;;;;9.45;6.55;;;7.40;99.90;;;;;;5043450;28;20407;-30
2024/01/31 12:09:07;;;;;;;8.02;7.22;;;7.40;99.90;;;;;;5044692;28;20045;-30
2024/01/31 12:11:33;;;;;;;8.02;7.22;;;7.40;99.90;;;;;;5044376;28;20044;-30
2024/01/31 12:13:59;;;;;;;9.23;7.30;;;7.40;99.90;;;;;;5049083;28;20025;-31
2024/01/31 12:16:24;;;;;;;10.75;9.60;;;7.40;99.90;;;;;;5051883;28;20040;-31
2024/01/31 12:19:00;;;;;;;10.45;8.10;;;7.40;99.90;;;;;;5048845;28;20077;-31
2024/01/31 12:21:26;;;;;;;10.60;8.65;;;7.50;99.90;;;;;;5052599;28;20045;-31
2024/01/31 12:23:52;;;;;;;8.10;7.30;;;7.50;99.90;;;;;;5050795;28;20044;-31
2024/01/31 12:26:17;;;;;;;9.30;8.05;;;7.50;99.90;;;;;;5049091;28;20091;-30
2024/01/31 12:28:53;;;;;;;10.23;8.73;;;7.40;99.90;;;;;;5051257;28;20057;-31
2024/01/31 12:31:19;;;;;;;11.82;8.63;;;7.40;99.90;;;;;;5046813;28;20041;-31
2024/01/31 12:33:45;;;;;;;10.65;8.20;;;7.40;99.90;;;;;;5045475;28;20040;-31
2024/01/31 12:36:11;;;;;;;12.02;10.23;;;7.50;99.90;;;;;;5043718;28;20045;-30
2024/01/31 12:38:36;;;;;;;10.10;8.85;;;7.50;99.90;;;;;;5050036;28;20040;-30
2024/01/31 12:41:02;;;;;;;10.30;9.30;;;7.50;99.90;;;;;;5051454;28;20561;-31
2024/01/31 12:43:28;;;;;;;12.23;9.23;;;7.50;99.90;;;;;;5047788;28;20086;-30
2024/01/31 12:45:54;;;;;;;12.00;10.20;;;7.50;99.90;;;;;;5047993;28;20499;-31
2024/01/31 12:48:20;;;;;;;11.05;9.85;;;7.50;99.90;;;;;;5050841;28;20049;-31
2024/01/31 12:50:45;;;;;;;10.63;8.70;;;7.50;99.90;;;;;;5051993;28;20059;-31